Gode, Ethiopia
Current Conditions -  °F | °C
As of 10:56 AM on Thursday 29 Jan 2015 (Local Time) from KQRH Reporting Station
Few Clouds Few Clouds  
Wind Chill: 82°   Ceiling: Unl
Heat Index: 83°   Visibility: 6mi
Dew Point: 63°   Wind: 9mph
Humidity: 52%   Direction: 100°E
Pressure: 30.08"   Gusts: 17mph
Location:  5.9°N, 43.57°E
Report Text: KQRH 290756Z AUTO 10008G15KT 080V140 9999 FEW049 28/17 A3008 RMK AO2 SLP179 T02770170
Loading
Personal Weather Stations






























Interactive Weather Map New forecast layout! Learn more

10-Day Weather Forecast

Advertisements
Track Severe Weather on mobile